Time;durP1;ratioP1;P1;durP2;ratioP2;P2;SDS_P1;SDS_P2;PMS_P1;PMS_P2;Temp;Humidity;BMP_temperature;BMP_pressure;BME280_temperature;BME280_humidity;BME280_pressure;Samples;Min_cycle;Max_cycle;Signal;HPM_P1;HPM_P2
2023/12/12 00:02:07;;;;;;;1008.42;905.33;;;6.40;99.90;;;;;;5069760;28;20040;-84
2023/12/12 00:04:33;;;;;;;945.42;862.30;;;6.40;99.90;;;;;;5068402;28;20044;-84
2023/12/12 00:06:58;;;;;;;1000.72;902.55;;;5.90;99.90;;;;;;5051667;28;20040;-84
2023/12/12 00:09:24;;;;;;;957.60;868.92;;;6.20;99.90;;;;;;5068182;28;20032;-83
2023/12/12 00:11:50;;;;;;;928.95;847.92;;;6.20;99.90;;;;;;5055186;28;20051;-84
2023/12/12 00:14:17;;;;;;;950.95;865.28;;;6.00;99.90;;;;;;5056045;28;20071;-83
2023/12/12 00:16:42;;;;;;;927.10;849.10;;;5.90;99.90;;;;;;5066368;28;20041;-84
2023/12/12 00:19:08;;;;;;;940.25;855.10;;;5.80;99.90;;;;;;5054203;28;20071;-84
2023/12/12 00:21:34;;;;;;;920.00;839.95;;;5.70;99.90;;;;;;5064219;28;20052;-84
2023/12/12 00:24:00;;;;;;;947.92;863.25;;;5.50;99.90;;;;;;5050728;28;20039;-84
2023/12/12 00:26:25;;;;;;;954.92;865.83;;;5.50;99.90;;;;;;5050406;28;20040;-85
2023/12/12 00:28:51;;;;;;;915.53;834.42;;;5.40;99.90;;;;;;5047047;28;20033;-84
2023/12/12 00:31:17;;;;;;;876.72;805.60;;;5.80;99.90;;;;;;5071977;28;20450;-84
2023/12/12 00:33:42;;;;;;;868.05;795.25;;;6.40;99.90;;;;;;5050492;28;20037;-85
2023/12/12 00:36:08;;;;;;;854.67;787.10;;;5.30;99.90;;;;;;5052033;28;20074;-84
2023/12/12 00:38:34;;;;;;;834.65;768.92;;;5.20;99.90;;;;;;5055529;28;20033;-83
2023/12/12 00:40:59;;;;;;;852.95;780.08;;;5.10;99.90;;;;;;5071165;28;20037;-84
2023/12/12 00:43:25;;;;;;;826.35;759.00;;;5.00;99.90;;;;;;5051755;28;20512;-84
2023/12/12 00:45:54;;;;;;;879.92;799.72;;;5.00;99.90;;;;;;5064802;28;20033;-84
2023/12/12 00:48:20;;;;;;;852.03;777.78;;;4.90;99.90;;;;;;5051984;28;20041;-84
2023/12/12 00:50:46;;;;;;;846.05;778.70;;;4.80;99.90;;;;;;5055024;28;20489;-84
2023/12/12 00:53:12;;;;;;;860.03;784.88;;;4.80;99.90;;;;;;5050555;28;20048;-84
2023/12/12 00:55:37;;;;;;;817.47;751.97;;;4.70;99.90;;;;;;5057847;28;20036;-84
2023/12/12 00:58:03;;;;;;;784.05;725.28;;;4.80;99.90;;;;;;5058604;28;20044;-84
2023/12/12 01:00:29;;;;;;;823.20;758.67;;;4.60;99.90;;;;;;5063341;28;20036;-83
2023/12/12 01:02:55;;;;;;;895.25;815.67;;;4.60;99.90;;;;;;5069104;28;20044;-83
2023/12/12 01:05:21;;;;;;;813.90;751.80;;;5.10;99.90;;;;;;5058933;28;20037;-84
2023/12/12 01:07:47;;;;;;;841.08;773.85;;;4.50;99.90;;;;;;5086770;28;20090;-84
2023/12/12 01:10:12;;;;;;;877.17;803.92;;;5.60;99.90;;;;;;5058569;28;20111;-84
2023/12/12 01:12:38;;;;;;;871.22;801.95;;;5.70;99.90;;;;;;5049540;28;20045;-84
2023/12/12 01:15:04;;;;;;;838.55;775.28;;;4.40;99.90;;;;;;5073677;28;20036;-84
2023/12/12 01:17:30;;;;;;;853.13;784.05;;;4.40;99.90;;;;;;5062692;28;20442;-83
2023/12/12 01:19:56;;;;;;;860.95;793.25;;;5.50;99.90;;;;;;5056900;28;20049;-84
2023/12/12 01:22:21;;;;;;;895.33;820.88;;;5.30;99.90;;;;;;5046326;28;20056;-84
2023/12/12 01:24:47;;;;;;;901.55;827.47;;;5.40;99.90;;;;;;5055540;28;20151;-83
2023/12/12 01:27:13;;;;;;;911.67;838.03;;;5.40;99.90;;;;;;5068718;28;20065;-83
2023/12/12 01:29:38;;;;;;;896.80;824.30;;;4.80;99.90;;;;;;5053642;28;20043;-84
2023/12/12 01:32:05;;;;;;;932.45;854.58;;;4.20;99.90;;;;;;5053247;28;20037;-84
2023/12/12 01:34:30;;;;;;;922.97;847.85;;;4.10;99.90;;;;;;5056717;28;20050;-84
2023/12/12 01:36:56;;;;;;;911.95;835.97;;;5.50;99.90;;;;;;5074134;28;20045;-83
2023/12/12 01:39:22;;;;;;;904.92;830.28;;;4.10;99.90;;;;;;5054253;28;20049;-84
2023/12/12 01:41:49;;;;;;;876.35;807.90;;;4.10;99.90;;;;;;5069955;28;20064;-84
2023/12/12 01:44:15;;;;;;;900.67;829.67;;;4.00;99.90;;;;;;5055008;28;20040;-84
2023/12/12 01:46:43;;;;;;;888.65;818.67;;;4.00;99.90;;;;;;5066851;28;20614;-83
2023/12/12 01:49:09;;;;;;;909.25;833.60;;;4.00;99.90;;;;;;5087130;28;20075;-84
2023/12/12 01:51:35;;;;;;;892.08;821.70;;;5.30;99.90;;;;;;5050097;28;20037;-83
2023/12/12 01:54:02;;;;;;;927.17;849.60;;;4.90;99.90;;;;;;5055991;28;20041;-84
2023/12/12 01:56:29;;;;;;;936.90;857.05;;;4.00;99.90;;;;;;5053087;28;20040;-84
2023/12/12 01:58:57;;;;;;;930.63;845.97;;;3.90;99.90;;;;;;5064303;28;20095;-84
2023/12/12 02:01:24;;;;;;;944.58;857.85;;;3.90;99.90;;;;;;5050981;28;20101;-84
2023/12/12 02:03:52;;;;;;;923.97;846.60;;;4.40;99.90;;;;;;5074994;28;20056;-84
2023/12/12 02:06:22;;;;;;;896.83;827.28;;;3.90;99.90;;;;;;5053911;28;20037;-84
2023/12/12 02:08:54;;;;;;;876.30;807.67;;;3.80;99.90;;;;;;5055674;28;20036;-84
2023/12/12 02:11:21;;;;;;;877.83;808.92;;;3.80;99.90;;;;;;5046339;28;20028;-84
2023/12/12 02:13:48;;;;;;;902.13;828.58;;;3.80;99.90;;;;;;5051324;28;20064;-84
2023/12/12 02:16:15;;;;;;;884.45;816.08;;;3.90;99.90;;;;;;5050432;28;20460;-84
2023/12/12 02:18:40;;;;;;;902.33;830.25;;;3.70;99.90;;;;;;5055658;28;20118;-84
2023/12/12 02:21:06;;;;;;;936.85;856.85;;;4.40;99.90;;;;;;5069021;28;20032;-84
2023/12/12 02:23:32;;;;;;;884.10;815.97;;;3.70;99.90;;;;;;5052112;28;20064;-84
2023/12/12 02:26:02;;;;;;;887.45;818.75;;;3.60;99.90;;;;;;5071365;28;20162;-84
2023/12/12 02:28:28;;;;;;;900.00;827.97;;;3.60;99.90;;;;;;5053554;28;20048;-84
2023/12/12 02:30:55;;;;;;;893.97;824.20;;;3.60;99.90;;;;;;5056063;28;20028;-83
2023/12/12 02:33:20;;;;;;;898.45;826.63;;;4.70;99.90;;;;;;5053027;28;20049;-84
2023/12/12 02:35:46;;;;;;;915.42;841.40;;;4.30;99.90;;;;;;5058966;28;20400;-84
2023/12/12 02:38:13;;;;;;;914.08;840.05;;;3.40;99.90;;;;;;5055615;28;20567;-84
2023/12/12 02:40:40;;;;;;;916.67;841.95;;;3.80;99.90;;;;;;5046152;28;20029;-84
2023/12/12 02:43:07;;;;;;;939.20;860.28;;;3.40;99.90;;;;;;5071810;28;20059;-83
2023/12/12 02:45:33;;;;;;;896.28;827.55;;;3.30;99.90;;;;;;5074550;28;20044;-84
2023/12/12 02:47:58;;;;;;;915.83;842.90;;;4.30;99.90;;;;;;5070058;28;20029;-84
2023/12/12 02:50:27;;;;;;;913.33;842.13;;;3.20;99.90;;;;;;5053326;28;20045;-84
2023/12/12 02:52:52;;;;;;;909.30;838.50;;;3.20;99.90;;;;;;5056445;28;20037;-84
2023/12/12 02:55:18;;;;;;;895.88;827.78;;;3.90;99.90;;;;;;5052896;28;20036;-83
2023/12/12 02:57:44;;;;;;;905.78;833.35;;;4.30;99.90;;;;;;5076370;28;20111;-84
2023/12/12 03:00:11;;;;;;;896.17;827.33;;;3.00;99.90;;;;;;5070698;28;20036;-84
2023/12/12 03:02:36;;;;;;;902.55;834.80;;;3.10;99.90;;;;;;5051255;28;20068;-84
2023/12/12 03:05:05;;;;;;;897.03;823.28;;;3.10;99.90;;;;;;5071313;28;20029;-83
2023/12/12 03:07:31;;;;;;;907.28;834.53;;;3.00;99.90;;;;;;5077850;28;20570;-84
2023/12/12 03:09:56;;;;;;;904.00;831.97;;;3.40;99.90;;;;;;5065367;28;20638;-83
2023/12/12 03:12:22;;;;;;;903.13;832.72;;;4.10;99.90;;;;;;5068603;28;20069;-84
2023/12/12 03:14:48;;;;;;;907.92;836.40;;;4.00;99.90;;;;;;5039892;28;20056;-83
2023/12/12 03:17:14;;;;;;;917.10;844.70;;;4.00;99.90;;;;;;5055874;28;20044;-84
2023/12/12 03:19:43;;;;;;;896.20;826.75;;;4.00;99.90;;;;;;5071779;28;20052;-84
2023/12/12 03:22:12;;;;;;;915.85;845.35;;;3.70;99.90;;;;;;5072267;28;20077;-83
2023/12/12 03:24:38;;;;;;;923.67;847.63;;;2.60;99.90;;;;;;5054058;28;20037;-83
2023/12/12 03:27:06;;;;;;;915.75;843.90;;;2.60;99.90;;;;;;5072345;28;20079;-84
2023/12/12 03:29:32;;;;;;;926.40;852.70;;;2.60;99.90;;;;;;5045348;28;20040;-84
2023/12/12 03:31:57;;;;;;;927.60;851.67;;;2.60;99.90;;;;;;5056169;28;20040;-83
2023/12/12 03:34:23;;;;;;;921.88;849.97;;;3.50;99.90;;;;;;5060272;28;20045;-84
2023/12/12 03:36:58;;;;;;;917.22;845.75;;;3.40;99.90;;;;;;5072030;28;20062;-83
2023/12/12 03:39:23;;;;;;;913.13;841.42;;;2.40;99.90;;;;;;5059331;28;20053;-83
2023/12/12 03:41:49;;;;;;;900.28;829.25;;;3.40;99.90;;;;;;5059667;28;20048;-84
2023/12/12 03:44:15;;;;;;;930.03;855.38;;;2.40;99.90;;;;;;5044321;28;20061;-83
2023/12/12 03:46:43;;;;;;;932.40;858.20;;;1.30;99.90;;;;;;5070473;28;20093;-83
2023/12/12 03:49:09;;;;;;;911.28;840.78;;;2.20;99.90;;;;;;5070265;28;20059;-83
2023/12/12 03:51:35;;;;;;;908.58;838.03;;;2.50;99.90;;;;;;5067728;28;20163;-84
2023/12/12 03:54:00;;;;;;;900.17;829.20;;;2.40;99.90;;;;;;5064773;28;20041;-83
2023/12/12 03:56:26;;;;;;;917.15;842.65;;;2.40;99.90;;;;;;5032573;28;20091;-84
2023/12/12 03:58:52;;;;;;;879.05;811.80;;;2.40;99.90;;;;;;5071397;28;20037;-84
2023/12/12 04:01:17;;;;;;;898.00;828.38;;;2.40;99.90;;;;;;5070192;28;20510;-84
2023/12/12 04:03:43;;;;;;;877.58;810.85;;;2.40;99.90;;;;;;5054824;28;20032;-84
2023/12/12 04:06:09;;;;;;;882.72;812.03;;;2.40;99.90;;;;;;5051563;28;20060;-84
2023/12/12 04:08:35;;;;;;;860.72;795.88;;;2.40;99.90;;;;;;5054748;28;20044;-84
2023/12/12 04:11:10;;;;;;;863.75;799.13;;;3.00;99.90;;;;;;5068484;28;20044;-84
2023/12/12 04:13:36;;;;;;;864.78;796.28;;;2.40;99.90;;;;;;5070892;28;20037;-83
2023/12/12 04:16:01;;;;;;;837.42;772.35;;;2.40;99.90;;;;;;5069427;28;20544;-84
2023/12/12 04:18:27;;;;;;;832.72;769.40;;;2.40;99.90;;;;;;5065751;28;20119;-84
2023/12/12 04:20:52;;;;;;;805.95;746.60;;;2.40;99.90;;;;;;5047511;28;20040;-84
2023/12/12 04:23:18;;;;;;;834.42;769.60;;;2.70;99.90;;;;;;5047393;28;20041;-84
2023/12/12 04:25:44;;;;;;;840.15;774.55;;;3.70;99.90;;;;;;5051718;28;20120;-84
2023/12/12 04:28:12;;;;;;;844.95;779.42;;;3.70;99.90;;;;;;5067149;28;20517;-84
2023/12/12 04:30:38;;;;;;;800.22;740.15;;;3.70;99.90;;;;;;5058032;28;20060;-84
2023/12/12 04:33:04;;;;;;;816.38;755.22;;;2.30;99.90;;;;;;5062890;28;20439;-83
2023/12/12 04:35:30;;;;;;;836.58;771.10;;;3.80;99.90;;;;;;5045258;28;20676;-84
2023/12/12 04:37:55;;;;;;;804.17;742.58;;;2.80;99.90;;;;;;5042982;28;20037;-84
2023/12/12 04:40:21;;;;;;;817.63;753.75;;;2.30;99.90;;;;;;5067313;28;20059;-84
2023/12/12 04:42:48;;;;;;;805.72;745.17;;;2.20;99.90;;;;;;5045137;28;20036;-84
2023/12/12 04:45:14;;;;;;;810.25;746.15;;;2.30;99.90;;;;;;5070242;28;20529;-83
2023/12/12 04:47:39;;;;;;;770.33;712.47;;;3.00;99.90;;;;;;5045644;28;20032;-84
2023/12/12 04:50:05;;;;;;;800.47;740.17;;;2.20;99.90;;;;;;5064324;28;20041;-84
2023/12/12 04:52:31;;;;;;;764.63;708.22;;;2.20;99.90;;;;;;5072090;28;20041;-84
2023/12/12 04:54:57;;;;;;;808.30;744.05;;;3.20;99.90;;;;;;5067416;28;20033;-84
2023/12/12 04:57:26;;;;;;;810.60;747.60;;;2.50;99.90;;;;;;5069347;28;20397;-84
2023/12/12 04:59:52;;;;;;;803.72;741.08;;;3.50;99.90;;;;;;5056902;28;20041;-84
2023/12/12 05:02:19;;;;;;;765.08;706.60;;;2.30;99.90;;;;;;5071153;28;20485;-85
2023/12/12 05:04:45;;;;;;;786.10;725.75;;;3.60;99.90;;;;;;5083448;28;20020;-84
2023/12/12 05:07:11;;;;;;;771.97;712.95;;;2.40;99.90;;;;;;5049647;28;20059;-84
2023/12/12 05:09:37;;;;;;;770.13;710.80;;;3.90;99.90;;;;;;5065200;28;20032;-84
2023/12/12 05:12:03;;;;;;;742.85;688.65;;;2.50;99.90;;;;;;5063871;28;20515;-85
2023/12/12 05:14:29;;;;;;;738.50;682.78;;;2.50;99.90;;;;;;5071080;28;20064;-83
2023/12/12 05:16:54;;;;;;;754.38;698.63;;;2.50;99.90;;;;;;5068371;28;20032;-84
2023/12/12 05:19:20;;;;;;;759.75;701.85;;;3.00;99.90;;;;;;5065482;28;20055;-84
2023/12/12 05:21:47;;;;;;;775.35;715.50;;;3.40;99.90;;;;;;5032967;28;20105;-84
2023/12/12 05:24:13;;;;;;;753.47;695.70;;;2.50;99.90;;;;;;5067154;28;20041;-84
2023/12/12 05:26:39;;;;;;;766.85;707.22;;;3.20;99.90;;;;;;5070405;28;20032;-84
2023/12/12 05:29:04;;;;;;;760.40;702.50;;;2.60;99.90;;;;;;5050511;28;20040;-83
2023/12/12 05:31:30;;;;;;;809.60;743.75;;;2.60;99.90;;;;;;5048831;28;20032;-84
2023/12/12 05:33:56;;;;;;;758.33;700.17;;;2.60;99.90;;;;;;5049823;28;20072;-83
2023/12/12 05:36:22;;;;;;;786.30;726.90;;;2.50;99.90;;;;;;5066943;28;20069;-84
2023/12/12 05:38:49;;;;;;;820.47;757.40;;;3.70;99.90;;;;;;5068349;28;20056;-83
2023/12/12 05:41:15;;;;;;;807.83;745.17;;;2.60;99.90;;;;;;5073045;28;20053;-83
2023/12/12 05:43:41;;;;;;;799.78;737.70;;;2.30;99.90;;;;;;5052107;28;20059;-85
2023/12/12 05:46:06;;;;;;;804.47;743.33;;;2.40;99.90;;;;;;5058680;28;20404;-83
2023/12/12 05:48:35;;;;;;;775.08;716.85;;;2.30;99.90;;;;;;5074075;28;20028;-83
2023/12/12 05:51:01;;;;;;;789.47;729.20;;;2.60;99.90;;;;;;5077261;28;20365;-83
2023/12/12 05:53:26;;;;;;;814.45;754.00;;;1.20;99.90;;;;;;5062134;28;20037;-84
2023/12/12 05:55:52;;;;;;;798.90;738.30;;;2.20;99.90;;;;;;5078591;28;20064;-83
2023/12/12 05:58:18;;;;;;;819.15;758.28;;;3.10;99.90;;;;;;5072811;28;20380;-83
2023/12/12 06:00:44;;;;;;;817.28;755.25;;;2.20;99.90;;;;;;5077221;28;20047;-84
2023/12/12 06:03:10;;;;;;;789.55;731.20;;;2.20;99.90;;;;;;5069344;28;20064;-85
2023/12/12 06:05:35;;;;;;;773.63;715.40;;;2.20;99.90;;;;;;5059111;28;20202;-84
2023/12/12 06:08:03;;;;;;;755.20;696.65;;;3.70;99.90;;;;;;5063687;28;20032;-84
2023/12/12 06:10:28;;;;;;;752.38;695.47;;;2.30;99.90;;;;;;5060940;28;20044;-84
2023/12/12 06:12:54;;;;;;;789.17;729.08;;;3.10;99.90;;;;;;5040917;28;20481;-84
2023/12/12 06:15:20;;;;;;;793.45;731.40;;;3.60;99.90;;;;;;5075099;28;20060;-84
2023/12/12 06:17:45;;;;;;;755.42;697.92;;;2.70;99.90;;;;;;5059731;28;20033;-84
2023/12/12 06:20:11;;;;;;;762.88;693.80;;;2.50;99.90;;;;;;5078850;28;20112;-84
2023/12/12 06:22:37;;;;;;;766.95;702.53;;;2.50;99.90;;;;;;5093800;28;20115;-84
2023/12/12 06:25:03;;;;;;;721.92;665.50;;;1.40;99.90;;;;;;5063533;28;20028;-84
2023/12/12 06:27:29;;;;;;;743.13;683.25;;;2.50;99.90;;;;;;5071962;28;20037;-84
2023/12/12 06:29:55;;;;;;;717.42;661.10;;;2.50;99.90;;;;;;5063483;28;20056;-84
2023/12/12 06:32:22;;;;;;;742.05;685.40;;;2.40;99.90;;;;;;5058824;28;20055;-84
2023/12/12 06:34:48;;;;;;;724.17;664.05;;;2.70;99.90;;;;;;5063879;28;20036;-84
2023/12/12 06:37:13;;;;;;;736.53;679.92;;;3.40;99.90;;;;;;5093541;28;20040;-84
2023/12/12 06:39:39;;;;;;;736.83;678.22;;;3.80;99.90;;;;;;5076523;28;20037;-83
2023/12/12 06:42:05;;;;;;;725.72;670.22;;;2.80;99.90;;;;;;5080916;28;20184;-84
2023/12/12 06:44:31;;;;;;;762.63;704.60;;;2.90;99.90;;;;;;5079572;28;20037;-84
2023/12/12 06:46:58;;;;;;;731.38;674.38;;;2.90;99.90;;;;;;5062755;28;20032;-84
2023/12/12 06:49:23;;;;;;;742.15;680.28;;;4.20;99.90;;;;;;5076751;28;20046;-84
2023/12/12 06:51:51;;;;;;;722.63;666.70;;;4.30;99.90;;;;;;5068663;28;20064;-84
2023/12/12 06:54:17;;;;;;;757.10;696.20;;;3.60;99.90;;;;;;5078661;28;20036;-85
2023/12/12 06:56:45;;;;;;;740.47;684.53;;;3.70;99.90;;;;;;5075002;28;20059;-83
2023/12/12 06:59:11;;;;;;;767.50;706.22;;;3.10;99.90;;;;;;5076632;28;20049;-84
2023/12/12 07:01:36;;;;;;;781.28;717.35;;;4.60;99.90;;;;;;5063371;28;20063;-84
2023/12/12 07:04:04;;;;;;;764.97;700.83;;;3.20;99.90;;;;;;5058871;28;20033;-84
2023/12/12 07:06:29;;;;;;;798.05;722.03;;;3.20;99.90;;;;;;5068892;28;20041;-83
2023/12/12 07:08:55;;;;;;;756.38;689.58;;;3.30;99.90;;;;;;5077301;28;20048;-84
2023/12/12 07:11:21;;;;;;;763.35;696.10;;;3.30;99.90;;;;;;5068197;28;20041;-83
2023/12/12 07:13:47;;;;;;;756.72;690.28;;;3.50;99.90;;;;;;5081956;28;20036;-84
2023/12/12 07:16:14;;;;;;;769.97;703.13;;;3.40;99.90;;;;;;5079816;28;20044;-84
2023/12/12 07:18:39;;;;;;;755.10;693.13;;;3.40;99.90;;;;;;5062659;28;20107;-84
2023/12/12 07:21:09;;;;;;;761.80;699.92;;;4.20;99.90;;;;;;5055646;28;20045;-84
2023/12/12 07:23:35;;;;;;;761.67;701.40;;;4.80;99.90;;;;;;5051629;28;20045;-84
2023/12/12 07:26:01;;;;;;;784.67;717.70;;;3.40;99.90;;;;;;5078524;28;20260;-84
2023/12/12 07:28:27;;;;;;;782.95;716.20;;;4.70;99.90;;;;;;5058417;28;20049;-84
2023/12/12 07:30:55;;;;;;;805.25;736.95;;;3.50;99.90;;;;;;5079369;28;20067;-86
2023/12/12 07:33:21;;;;;;;826.45;756.88;;;3.60;99.90;;;;;;5075872;28;20052;-83
2023/12/12 07:35:46;;;;;;;793.33;719.28;;;3.60;99.90;;;;;;5062980;28;20036;-85
2023/12/12 07:38:12;;;;;;;817.13;748.70;;;3.70;99.90;;;;;;5047755;28;20037;-84
2023/12/12 07:40:38;;;;;;;792.45;722.53;;;5.00;99.90;;;;;;5078333;28;20055;-85
2023/12/12 07:43:04;;;;;;;832.75;760.42;;;5.20;99.90;;;;;;5061583;28;20040;-84
2023/12/12 07:45:30;;;;;;;853.97;772.40;;;4.30;99.90;;;;;;5058638;28;20185;-84
2023/12/12 07:47:55;;;;;;;793.22;724.85;;;3.80;99.90;;;;;;5075520;28;20044;-84
2023/12/12 07:50:22;;;;;;;813.95;739.28;;;3.90;99.90;;;;;;5080980;28;20040;-84
2023/12/12 07:52:49;;;;;;;791.03;716.38;;;3.90;99.90;;;;;;5072678;28;20036;-84
2023/12/12 07:55:14;;;;;;;792.50;719.72;;;3.90;99.90;;;;;;5034107;28;20037;-83
2023/12/12 07:57:40;;;;;;;818.30;747.95;;;4.00;99.90;;;;;;5061995;28;20037;-84
2023/12/12 08:00:07;;;;;;;831.50;756.65;;;4.00;99.90;;;;;;5075032;28;20043;-84
2023/12/12 08:02:33;;;;;;;805.35;728.15;;;5.10;99.90;;;;;;5057269;28;20051;-84
2023/12/12 08:04:59;;;;;;;780.95;712.45;;;3.80;99.90;;;;;;5049193;28;20045;-84
2023/12/12 08:07:25;;;;;;;826.80;727.30;;;4.10;99.90;;;;;;5075858;28;20037;-84
2023/12/12 08:09:51;;;;;;;820.80;748.85;;;4.20;99.90;;;;;;5063598;28;20100;-84
2023/12/12 08:12:16;;;;;;;803.88;732.25;;;5.30;99.90;;;;;;5074373;28;20036;-84
2023/12/12 08:14:42;;;;;;;854.15;768.10;;;4.20;99.90;;;;;;5055675;28;20052;-84
2023/12/12 08:17:08;;;;;;;880.70;793.58;;;4.20;99.90;;;;;;5070995;28;20034;-84
2023/12/12 08:19:33;;;;;;;812.03;737.72;;;4.30;99.90;;;;;;5075842;28;20076;-84
2023/12/12 08:21:59;;;;;;;832.65;758.65;;;4.50;99.90;;;;;;5070277;28;20040;-84
2023/12/12 08:24:25;;;;;;;831.45;757.67;;;4.30;99.90;;;;;;5051482;28;20051;-84
2023/12/12 08:26:50;;;;;;;930.25;820.35;;;4.40;99.90;;;;;;5065815;28;20044;-84
2023/12/12 08:29:16;;;;;;;852.00;773.92;;;5.30;99.90;;;;;;5065429;28;20150;-83
2023/12/12 08:31:42;;;;;;;883.80;799.00;;;5.70;99.90;;;;;;5053440;28;20040;-85
2023/12/12 08:34:08;;;;;;;891.75;807.08;;;4.50;99.90;;;;;;5053431;28;20063;-84
2023/12/12 08:36:34;;;;;;;850.30;775.08;;;4.70;99.90;;;;;;5057599;28;20041;-84
2023/12/12 08:39:00;;;;;;;879.58;795.60;;;5.70;99.90;;;;;;5059233;28;20037;-84
2023/12/12 08:41:31;;;;;;;965.42;862.15;;;4.60;99.90;;;;;;5059075;28;20041;-83
2023/12/12 08:44:00;;;;;;;890.35;798.90;;;4.60;99.90;;;;;;5072634;28;20040;-83
2023/12/12 08:46:27;;;;;;;916.67;819.20;;;5.30;99.90;;;;;;5058114;28;20036;-84
2023/12/12 08:48:56;;;;;;;878.13;792.80;;;5.90;99.90;;;;;;5054123;28;20045;-83
2023/12/12 08:51:23;;;;;;;879.67;793.15;;;5.80;99.90;;;;;;5056271;28;20029;-84
2023/12/12 08:53:49;;;;;;;871.60;778.17;;;4.80;99.90;;;;;;5061954;28;20032;-84
2023/12/12 08:56:17;;;;;;;923.95;805.42;;;5.20;99.90;;;;;;5057350;28;20029;-84
2023/12/12 08:58:48;;;;;;;1035.18;818.00;;;4.90;99.90;;;;;;5057660;28;20097;-84
2023/12/12 09:01:16;;;;;;;913.22;795.22;;;5.00;99.90;;;;;;5057847;28;20044;-84
2023/12/12 09:03:42;;;;;;;906.60;807.08;;;5.10;99.90;;;;;;5058816;28;20044;-83
2023/12/12 09:06:08;;;;;;;1145.88;829.45;;;5.90;99.90;;;;;;5065678;28;20017;-84
2023/12/12 09:08:34;;;;;;;976.10;783.58;;;5.20;99.90;;;;;;5068529;28;20020;-84
2023/12/12 09:11:00;;;;;;;1067.75;832.85;;;5.30;99.90;;;;;;5063371;28;20044;-84
2023/12/12 09:13:27;;;;;;;894.65;797.55;;;5.90;99.90;;;;;;5083000;28;20052;-84
2023/12/12 09:15:53;;;;;;;1114.55;845.53;;;6.50;99.90;;;;;;5061272;28;20032;-84
2023/12/12 09:18:21;;;;;;;896.70;800.50;;;5.40;99.90;;;;;;5057348;28;20099;-84
2023/12/12 09:20:49;;;;;;;1044.18;843.45;;;5.50;99.90;;;;;;5060852;28;20049;-84
2023/12/12 09:23:18;;;;;;;950.63;832.90;;;6.00;99.90;;;;;;5075823;28;20067;-84
2023/12/12 09:25:44;;;;;;;942.50;798.45;;;6.10;99.90;;;;;;5073343;28;20037;-84
2023/12/12 09:28:09;;;;;;;1045.68;841.45;;;5.50;99.90;;;;;;5056816;28;20048;-84
2023/12/12 09:30:35;;;;;;;1085.30;852.97;;;5.60;99.90;;;;;;5057185;28;20047;-84
2023/12/12 09:33:00;;;;;;;909.45;810.72;;;6.50;99.90;;;;;;5060736;28;20044;-84
2023/12/12 09:35:26;;;;;;;944.35;845.55;;;5.70;99.90;;;;;;5076724;28;20037;-84
2023/12/12 09:37:55;;;;;;;1008.45;868.55;;;5.60;99.90;;;;;;5086169;28;20051;-84
2023/12/12 09:40:20;;;;;;;940.55;838.70;;;5.60;99.90;;;;;;5061357;28;20041;-84
2023/12/12 09:42:48;;;;;;;1110.97;864.88;;;6.80;99.90;;;;;;5067480;28;20255;-84
2023/12/12 09:45:15;;;;;;;941.55;845.67;;;6.00;99.90;;;;;;5064241;28;20033;-85
2023/12/12 09:47:45;;;;;;;939.03;839.55;;;5.70;99.90;;;;;;5063960;28;20067;-83
2023/12/12 09:50:14;;;;;;;1086.68;885.88;;;6.50;99.90;;;;;;5077149;28;20393;-84
2023/12/12 09:52:42;;;;;;;1002.42;840.97;;;5.70;99.90;;;;;;5075014;28;20040;-84
2023/12/12 09:55:08;;;;;;;1082.28;846.60;;;5.80;99.90;;;;;;5080978;28;20124;-84
2023/12/12 09:57:33;;;;;;;1089.38;909.08;;;5.80;99.90;;;;;;5061005;28;20071;-84
2023/12/12 10:00:00;;;;;;;977.83;876.30;;;6.80;99.90;;;;;;5084660;28;20036;-84
2023/12/12 10:02:36;;;;;;;1012.22;904.20;;;5.80;99.90;;;;;;5082318;28;20044;-84
2023/12/12 10:05:04;;;;;;;1066.85;882.05;;;6.40;99.90;;;;;;5052848;28;20036;-84
2023/12/12 10:07:31;;;;;;;980.15;875.38;;;5.90;99.90;;;;;;5052633;28;20024;-84
2023/12/12 10:09:57;;;;;;;1164.78;890.92;;;6.80;99.90;;;;;;5064957;28;20044;-84
2023/12/12 10:12:22;;;;;;;1034.78;877.08;;;6.50;99.90;;;;;;5077429;28;20048;-84
2023/12/12 10:14:48;;;;;;;961.92;856.92;;;6.00;99.90;;;;;;5056174;28;20045;-84
2023/12/12 10:17:14;;;;;;;992.97;875.08;;;6.90;99.90;;;;;;5078665;28;20049;-84
2023/12/12 10:19:41;;;;;;;987.10;877.42;;;6.40;99.90;;;;;;5085745;28;20053;-84
2023/12/12 10:22:09;;;;;;;969.95;872.75;;;6.00;99.90;;;;;;5063345;28;20044;-83
2023/12/12 10:24:36;;;;;;;972.03;876.58;;;6.00;99.90;;;;;;5075594;28;20501;-84
2023/12/12 10:27:03;;;;;;;963.17;856.00;;;6.00;99.90;;;;;;5063872;28;20041;-84
2023/12/12 10:29:30;;;;;;;937.47;837.53;;;6.10;99.90;;;;;;5054338;28;20036;-84
2023/12/12 10:31:58;;;;;;;971.20;871.30;;;6.90;99.90;;;;;;5077537;28;20048;-84
2023/12/12 10:34:27;;;;;;;950.33;855.38;;;6.00;99.90;;;;;;5056940;28;20041;-84
2023/12/12 10:36:54;;;;;;;979.38;872.92;;;7.10;99.90;;;;;;5082047;28;20040;-84
2023/12/12 10:39:20;;;;;;;851.38;769.63;;;6.80;99.90;;;;;;5057620;28;20040;-84
2023/12/12 10:41:55;;;;;;;956.33;859.28;;;7.20;99.90;;;;;;5075719;28;20047;-84
2023/12/12 10:44:21;;;;;;;963.03;857.63;;;5.80;99.90;;;;;;5056972;28;20047;-84
2023/12/12 10:46:54;;;;;;;994.38;886.45;;;6.10;99.90;;;;;;5074807;28;20105;-84
2023/12/12 10:49:28;;;;;;;919.22;826.45;;;7.40;99.90;;;;;;5049085;28;20072;-84
2023/12/12 10:51:54;;;;;;;958.00;860.35;;;6.70;99.90;;;;;;5057197;28;20036;-84
2023/12/12 10:54:22;;;;;;;943.33;846.83;;;7.00;99.90;;;;;;5057080;28;20037;-84
2023/12/12 10:56:49;;;;;;;974.25;869.03;;;6.50;99.90;;;;;;5062727;28;20041;-84
2023/12/12 10:59:21;;;;;;;897.03;811.75;;;7.10;99.90;;;;;;5058552;28;20041;-83
2023/12/12 11:01:47;;;;;;;948.17;850.55;;;6.10;99.90;;;;;;5057910;28;20061;-84
2023/12/12 11:04:17;;;;;;;938.03;842.13;;;7.00;99.90;;;;;;5059323;28;20041;-84
2023/12/12 11:06:43;;;;;;;919.80;823.08;;;6.90;99.90;;;;;;5070780;28;20036;-84
2023/12/12 11:09:10;;;;;;;984.92;880.15;;;7.20;99.90;;;;;;5074000;28;20096;-84
2023/12/12 11:11:42;;;;;;;975.80;860.28;;;6.10;99.90;;;;;;5065358;28;20417;-84
2023/12/12 11:14:09;;;;;;;1022.35;894.00;;;6.90;99.90;;;;;;5075215;28;20025;-84
2023/12/12 11:16:36;;;;;;;892.63;806.30;;;6.20;99.90;;;;;;5077305;28;20061;-83
2023/12/12 11:19:02;;;;;;;941.88;849.42;;;6.30;99.90;;;;;;5072850;28;20052;-84
2023/12/12 11:21:54;;;;;;;953.60;857.35;;;7.10;99.90;;;;;;5054821;28;20044;-83
2023/12/12 11:24:20;;;;;;;880.42;804.28;;;6.50;99.90;;;;;;5063206;28;20067;-84
2023/12/12 11:26:52;;;;;;;924.00;831.90;;;6.30;99.90;;;;;;5058768;28;20505;-84
2023/12/12 11:29:24;;;;;;;912.50;824.47;;;6.30;99.90;;;;;;5051266;28;20100;-84
2023/12/12 11:32:18;;;;;;;918.33;829.08;;;6.30;99.90;;;;;;5058593;28;20485;-84
2023/12/12 11:34:45;;;;;;;1001.60;876.67;;;7.40;99.90;;;;;;5056417;28;20049;-84
2023/12/12 11:37:11;;;;;;;970.35;870.40;;;6.30;99.90;;;;;;5082280;28;20036;-84
2023/12/12 11:40:01;;;;;;;942.63;845.72;;;7.00;99.90;;;;;;5078062;28;20041;-84
2023/12/12 11:42:30;;;;;;;939.67;848.25;;;6.40;99.90;;;;;;5075289;28;20041;-84
2023/12/12 11:44:58;;;;;;;902.80;813.88;;;6.40;99.90;;;;;;5057691;28;20497;-84
2023/12/12 11:47:26;;;;;;;978.03;878.83;;;7.50;99.90;;;;;;5056577;28;20412;-84
2023/12/12 11:50:19;;;;;;;914.35;830.58;;;6.70;99.90;;;;;;5061755;28;20149;-84
2023/12/12 11:52:48;;;;;;;906.90;821.97;;;6.50;99.90;;;;;;5066406;28;20040;-84
2023/12/12 11:55:19;;;;;;;884.67;804.97;;;6.40;99.90;;;;;;5059527;28;20489;-84
2023/12/12 11:57:45;;;;;;;946.85;857.78;;;7.40;99.90;;;;;;5058112;28;20109;-84
2023/12/12 12:00:16;;;;;;;980.88;878.00;;;6.50;99.90;;;;;;5077011;28;20100;-84
2023/12/12 12:02:42;;;;;;;970.08;874.15;;;6.50;99.90;;;;;;5077814;28;20142;-84
2023/12/12 12:05:08;;;;;;;960.33;865.67;;;6.80;99.90;;;;;;5060209;28;20207;-84
2023/12/12 12:07:34;;;;;;;927.70;841.40;;;7.60;99.90;;;;;;5058509;28;20029;-86
2023/12/12 12:10:00;;;;;;;1000.78;893.20;;;7.70;99.90;;;;;;5070724;28;20040;-84
2023/12/12 12:12:26;;;;;;;932.67;842.72;;;6.60;99.90;;;;;;5074992;28;20044;-84
2023/12/12 12:14:52;;;;;;;929.17;837.10;;;6.60;99.90;;;;;;5082384;28;20033;-84